createdAt,value
2023-04-30T00:00:05.533Z,93.43
2023-04-30T00:01:05.514Z,93.53
2023-04-30T00:02:05.566Z,93.43
2023-04-30T00:03:05.631Z,93.53
2023-04-30T00:04:05.524Z,93.43
2023-04-30T00:05:05.486Z,93.53
2023-04-30T00:06:05.509Z,93.53
2023-04-30T00:07:05.471Z,93.73
2023-04-30T00:08:05.447Z,93.73
2023-04-30T00:09:05.445Z,93.84
2023-04-30T00:10:05.583Z,93.84
2023-04-30T00:11:05.433Z,93.84
2023-04-30T00:12:05.416Z,93.94
2023-04-30T00:13:05.406Z,94.09
2023-04-30T00:14:05.381Z,94.09
2023-04-30T00:15:05.378Z,94.09
2023-04-30T00:16:05.420Z,94.09
2023-04-30T00:17:05.383Z,93.98
2023-04-30T00:18:05.429Z,94.29
2023-04-30T00:19:05.341Z,94.29
2023-04-30T00:20:05.335Z,94.29
2023-04-30T00:21:05.312Z,94.29
2023-04-30T00:22:05.304Z,94.40
2023-04-30T00:23:05.288Z,94.40
2023-04-30T00:24:05.305Z,94.50
2023-04-30T00:25:05.275Z,94.60
2023-04-30T00:26:05.273Z,94.81
2023-04-30T00:27:05.238Z,94.85
2023-04-30T00:28:05.230Z,94.96
2023-04-30T00:29:05.205Z,95.06
2023-04-30T00:30:05.212Z,95.17
2023-04-30T00:31:05.220Z,95.27
2023-04-30T00:32:05.219Z,95.06
2023-04-30T00:33:05.240Z,95.06
2023-04-30T00:34:05.154Z,95.17
2023-04-30T00:35:05.152Z,95.06
2023-04-30T00:36:05.183Z,95.17
2023-04-30T00:37:05.152Z,95.17
2023-04-30T00:38:05.158Z,94.96
2023-04-30T00:39:05.122Z,94.75
2023-04-30T00:40:05.119Z,94.23
2023-04-30T00:41:05.117Z,94.23
2023-04-30T00:42:05.152Z,94.54
2023-04-30T00:43:05.076Z,94.54
2023-04-30T00:44:05.085Z,94.54
2023-04-30T00:45:05.032Z,94.44
2023-04-30T00:46:05.078Z,94.44
2023-04-30T00:47:05.020Z,94.54
2023-04-30T00:48:05.048Z,94.65
2023-04-30T00:49:05.270Z,94.65
2023-04-30T00:50:04.991Z,94.54
2023-04-30T00:51:04.973Z,94.75
2023-04-30T00:52:04.968Z,95.10
2023-04-30T00:53:04.958Z,95.31
2023-04-30T00:54:04.978Z,95.52
2023-04-30T00:55:04.943Z,95.62
2023-04-30T00:56:04.930Z,95.62
2023-04-30T00:57:04.912Z,95.62
2023-04-30T00:58:04.921Z,95.52
2023-04-30T00:59:04.883Z,94.79
2023-04-30T01:00:05.039Z,91.28
2023-04-30T01:01:04.960Z,92.11
2023-04-30T01:02:04.890Z,92.77
2023-04-30T01:03:04.935Z,93.74
2023-04-30T01:04:04.853Z,94.06
2023-04-30T01:05:04.832Z,94.93
2023-04-30T01:06:04.896Z,95.75
2023-04-30T01:07:04.795Z,96.37
2023-04-30T01:08:04.810Z,96.58
2023-04-30T01:09:04.769Z,96.79
2023-04-30T01:10:04.782Z,97.00
2023-04-30T01:11:04.762Z,97.62
2023-04-30T01:12:04.758Z,97.83
2023-04-30T01:13:04.756Z,97.66
2023-04-30T01:14:04.754Z,97.20
2023-04-30T01:15:04.712Z,96.48
2023-04-30T01:16:04.803Z,95.70
2023-04-30T01:17:04.732Z,94.97
2023-04-30T01:18:04.746Z,95.18
2023-04-30T01:19:04.702Z,95.59
2023-04-30T01:20:04.658Z,95.39
2023-04-30T01:21:04.664Z,96.01
2023-04-30T01:22:04.671Z,96.01
2023-04-30T01:23:04.642Z,95.49
2023-04-30T01:24:04.670Z,94.49
2023-04-30T01:25:04.637Z,93.25
2023-04-30T01:26:04.610Z,93.29
2023-04-30T01:27:04.626Z,94.74
2023-04-30T01:28:04.592Z,96.61
2023-04-30T01:29:04.580Z,97.24
2023-04-30T01:30:04.598Z,97.55
2023-04-30T01:31:04.564Z,97.24
2023-04-30T01:32:04.556Z,97.24
2023-04-30T01:33:04.632Z,97.29
2023-04-30T01:34:04.526Z,96.82
2023-04-30T01:35:04.507Z,96.98
2023-04-30T01:36:04.483Z,96.78
2023-04-30T01:37:04.440Z,97.60
2023-04-30T01:38:04.482Z,97.81
2023-04-30T01:39:04.458Z,97.29
2023-04-30T01:40:04.427Z,97.65
2023-04-30T01:41:04.388Z,97.81
2023-04-30T01:42:04.457Z,97.86
2023-04-30T01:43:04.442Z,97.13
2023-04-30T01:44:04.422Z,97.80
2023-04-30T01:45:04.423Z,98.69
2023-04-30T01:46:04.418Z,99.21
2023-04-30T01:47:04.379Z,99.62
2023-04-30T01:48:04.433Z,99.00
2023-04-30T01:49:04.403Z,98.07
2023-04-30T01:50:04.353Z,97.65
2023-04-30T01:51:04.361Z,97.86
2023-04-30T01:52:04.335Z,97.75
2023-04-30T01:53:04.313Z,97.34
2023-04-30T01:54:04.310Z,98.17
2023-04-30T01:55:04.290Z,97.86
2023-04-30T01:56:04.317Z,97.96
2023-04-30T01:57:04.325Z,98.07
2023-04-30T01:58:04.283Z,98.42
2023-04-30T01:59:04.265Z,99.15
2023-04-30T02:00:04.280Z,98.42
2023-04-30T02:01:04.408Z,97.90
2023-04-30T02:02:04.261Z,97.17
2023-04-30T02:03:04.310Z,97.28
2023-04-30T02:04:04.231Z,98.00
2023-04-30T02:05:04.192Z,97.80
2023-04-30T02:06:04.234Z,98.00
2023-04-30T02:07:04.187Z,98.11
2023-04-30T02:08:04.176Z,98.11
2023-04-30T02:09:04.156Z,98.32
2023-04-30T02:10:04.156Z,98.32
2023-04-30T02:11:04.145Z,98.48
2023-04-30T02:12:04.122Z,98.58
2023-04-30T02:13:04.317Z,98.27
2023-04-30T02:14:04.116Z,97.96
2023-04-30T02:15:04.083Z,97.96
2023-04-30T02:16:04.117Z,98.38
2023-04-30T02:17:04.060Z,98.79
2023-04-30T02:18:04.305Z,98.90
2023-04-30T02:19:04.077Z,98.79
2023-04-30T02:20:04.032Z,98.38
2023-04-30T02:21:04.011Z,97.34
2023-04-30T02:22:04.015Z,97.24
2023-04-30T02:23:03.997Z,97.69
2023-04-30T02:24:03.994Z,98.00
2023-04-30T02:25:03.999Z,98.00
2023-04-30T02:26:03.973Z,98.21
2023-04-30T02:27:03.952Z,98.52
2023-04-30T02:28:03.970Z,98.63
2023-04-30T02:29:03.941Z,98.21
2023-04-30T02:30:03.937Z,98.57
2023-04-30T02:31:03.921Z,98.68
2023-04-30T02:32:04.091Z,99.40
2023-04-30T02:33:03.969Z,99.71
2023-04-30T02:34:03.879Z,99.92
2023-04-30T02:35:03.891Z,99.92
2023-04-30T02:36:03.903Z,99.71
2023-04-30T02:37:03.874Z,99.46
2023-04-30T02:38:03.854Z,98.94
2023-04-30T02:39:03.849Z,98.94
2023-04-30T02:40:03.840Z,98.68
2023-04-30T02:41:03.824Z,98.68
2023-04-30T02:42:03.804Z,98.78
2023-04-30T02:43:03.804Z,99.04
2023-04-30T02:44:03.770Z,98.94
2023-04-30T02:45:03.782Z,98.78
2023-04-30T02:46:03.820Z,98.78
2023-04-30T02:47:03.771Z,98.78
2023-04-30T02:48:03.813Z,99.30
2023-04-30T02:49:03.746Z,99.61
2023-04-30T02:50:03.716Z,99.30
2023-04-30T02:51:03.707Z,99.19
2023-04-30T02:52:03.692Z,98.78
2023-04-30T02:53:03.697Z,98.78
2023-04-30T02:54:03.703Z,97.64
2023-04-30T02:55:03.678Z,97.22
2023-04-30T02:56:03.690Z,98.26
2023-04-30T02:57:03.656Z,98.78
2023-04-30T02:58:03.639Z,98.88
2023-04-30T02:59:03.632Z,99.09
2023-04-30T03:00:03.630Z,99.40
2023-04-30T03:01:03.676Z,99.40
2023-04-30T03:02:03.624Z,99.55
2023-04-30T03:03:03.650Z,99.96
2023-04-30T03:04:03.568Z,99.99
2023-04-30T03:05:03.563Z,99.99
2023-04-30T03:06:03.581Z,99.99
2023-04-30T03:07:03.560Z,99.99
2023-04-30T03:08:03.547Z,99.99
2023-04-30T03:09:03.522Z,99.99
2023-04-30T03:10:03.502Z,99.96
2023-04-30T03:11:03.496Z,99.86
2023-04-30T03:12:03.492Z,99.99
2023-04-30T03:13:03.483Z,99.99
2023-04-30T03:14:03.474Z,99.99
2023-04-30T03:15:03.456Z,99.99
2023-04-30T03:16:03.568Z,99.86
2023-04-30T03:17:03.449Z,99.55
2023-04-30T03:18:03.506Z,99.24
2023-04-30T03:19:03.420Z,99.13
2023-04-30T03:20:03.400Z,99.24
2023-04-30T03:21:03.423Z,99.44
2023-04-30T03:22:03.388Z,99.71
2023-04-30T03:23:03.367Z,99.71
2023-04-30T03:24:03.368Z,98.99
2023-04-30T03:25:03.386Z,99.40
2023-04-30T03:26:03.343Z,99.99
2023-04-30T03:27:03.390Z,99.99
2023-04-30T03:28:03.334Z,99.99
2023-04-30T03:29:03.322Z,99.99
2023-04-30T03:30:03.305Z,99.86
2023-04-30T03:31:03.380Z,99.61
2023-04-30T03:32:03.291Z,99.30
2023-04-30T03:33:03.334Z,97.89
2023-04-30T03:34:03.255Z,97.53
2023-04-30T03:35:03.262Z,97.27
2023-04-30T03:36:03.251Z,97.37
2023-04-30T03:37:03.248Z,97.99
2023-04-30T03:38:03.229Z,97.68
2023-04-30T03:39:03.232Z,97.99
2023-04-30T03:40:03.152Z,98.20
2023-04-30T03:41:03.135Z,98.45
2023-04-30T03:42:03.149Z,98.86
2023-04-30T03:43:03.120Z,99.38
2023-04-30T03:44:03.108Z,99.80
2023-04-30T03:45:03.114Z,99.99
2023-04-30T03:46:03.117Z,99.91
2023-04-30T03:47:03.097Z,99.59
2023-04-30T03:48:03.182Z,99.49
2023-04-30T03:49:03.052Z,99.34
2023-04-30T03:50:03.052Z,98.93
2023-04-30T03:51:03.030Z,97.41
2023-04-30T03:52:03.024Z,95.96
2023-04-30T03:53:03.007Z,96.48
2023-04-30T03:54:03.000Z,96.17
2023-04-30T03:55:03.015Z,95.86
2023-04-30T03:56:02.985Z,95.23
2023-04-30T03:57:02.985Z,94.92
2023-04-30T03:58:02.973Z,93.57
2023-04-30T03:59:02.974Z,92.84
2023-04-30T04:00:02.957Z,93.30
2023-04-30T04:01:02.934Z,94.24
2023-04-30T04:02:02.995Z,93.35
2023-04-30T04:03:02.950Z,94.28
2023-04-30T04:04:02.929Z,95.21
2023-04-30T04:05:02.896Z,95.84
2023-04-30T04:06:02.954Z,95.53
2023-04-30T04:07:02.875Z,94.59
2023-04-30T04:08:02.849Z,95.63
2023-04-30T04:09:02.870Z,96.67
2023-04-30T04:10:02.835Z,98.65
2023-04-30T04:11:02.824Z,98.75
2023-04-30T04:12:02.822Z,98.75
2023-04-30T04:13:02.823Z,99.22
2023-04-30T04:14:02.800Z,99.02
2023-04-30T04:15:02.785Z,99.02
2023-04-30T04:16:02.852Z,98.97
2023-04-30T04:17:02.784Z,98.86
2023-04-30T04:18:02.802Z,98.76
2023-04-30T04:19:02.768Z,99.07
2023-04-30T04:20:02.730Z,98.76
2023-04-30T04:21:02.788Z,98.97
2023-04-30T04:22:02.735Z,98.76
2023-04-30T04:23:02.715Z,98.35
2023-04-30T04:24:02.708Z,97.99
2023-04-30T04:25:02.707Z,97.37
2023-04-30T04:26:02.673Z,97.47
2023-04-30T04:27:02.677Z,97.83
2023-04-30T04:28:02.656Z,98.03
2023-04-30T04:29:02.652Z,97.93
2023-04-30T04:30:02.646Z,98.03
2023-04-30T04:31:02.652Z,98.76
2023-04-30T04:32:02.632Z,99.38
2023-04-30T04:33:02.682Z,99.70
2023-04-30T04:34:02.591Z,99.80
2023-04-30T04:35:02.613Z,99.80
2023-04-30T04:36:02.589Z,99.91
2023-04-30T04:37:02.570Z,99.70
2023-04-30T04:38:02.596Z,99.38
2023-04-30T04:39:02.563Z,99.18
2023-04-30T04:40:02.527Z,99.59
2023-04-30T04:41:02.505Z,99.80
2023-04-30T04:42:02.524Z,99.80
2023-04-30T04:43:02.496Z,99.80
2023-04-30T04:44:02.543Z,99.70
2023-04-30T04:45:02.486Z,99.07
2023-04-30T04:46:02.618Z,98.51
2023-04-30T04:47:02.464Z,98.30
2023-04-30T04:48:02.598Z,97.47
2023-04-30T04:49:02.433Z,96.95
2023-04-30T04:50:02.421Z,96.75
2023-04-30T04:51:02.404Z,96.89
2023-04-30T04:52:02.395Z,96.79
2023-04-30T04:53:02.398Z,96.89
2023-04-30T04:54:02.373Z,96.58
2023-04-30T04:55:02.390Z,96.69
2023-04-30T04:56:02.350Z,97.31
2023-04-30T04:57:02.355Z,98.10
2023-04-30T04:58:02.326Z,98.61
2023-04-30T04:59:02.335Z,99.03
2023-04-30T05:00:02.325Z,99.40
2023-04-30T05:01:02.306Z,99.71
2023-04-30T05:02:02.325Z,99.92
2023-04-30T05:03:02.338Z,99.87
2023-04-30T05:04:02.404Z,98.73
2023-04-30T05:05:02.277Z,96.97
2023-04-30T05:06:02.260Z,96.45
2023-04-30T05:07:02.249Z,97.28
2023-04-30T05:08:02.224Z,97.96
2023-04-30T05:09:02.212Z,98.69
2023-04-30T05:10:02.231Z,99.00
2023-04-30T05:11:02.203Z,99.16
2023-04-30T05:12:02.253Z,99.16
2023-04-30T05:13:02.189Z,99.05
2023-04-30T05:14:02.178Z,98.85
2023-04-30T05:15:02.193Z,98.74
2023-04-30T05:16:02.186Z,98.28
2023-04-30T05:17:02.138Z,96.73
2023-04-30T05:18:02.268Z,96.21
2023-04-30T05:19:02.127Z,96.83
2023-04-30T05:20:02.113Z,97.04
2023-04-30T05:21:02.266Z,97.35
2023-04-30T05:22:02.080Z,97.14
2023-04-30T05:23:02.071Z,97.04
2023-04-30T05:24:02.089Z,97.14
2023-04-30T05:25:02.073Z,97.20
2023-04-30T05:26:02.037Z,97.31
2023-04-30T05:27:02.053Z,97.10
2023-04-30T05:28:02.031Z,97.00
2023-04-30T05:29:02.016Z,97.20
2023-04-30T05:30:02.035Z,96.75
2023-04-30T05:31:01.996Z,96.54
2023-04-30T05:32:02.001Z,96.54
2023-04-30T05:33:02.034Z,96.23
2023-04-30T05:34:01.968Z,95.61
2023-04-30T05:35:01.972Z,94.94
2023-04-30T05:36:01.955Z,94.63
2023-04-30T05:37:01.929Z,94.53
2023-04-30T05:38:01.924Z,94.84
2023-04-30T05:39:01.912Z,94.59
2023-04-30T05:40:01.909Z,93.55
2023-04-30T05:41:01.888Z,94.38
2023-04-30T05:42:01.875Z,93.66
2023-04-30T05:43:01.893Z,93.45
2023-04-30T05:44:01.847Z,93.20
2023-04-30T05:45:01.837Z,94.03
2023-04-30T05:46:01.896Z,93.30
2023-04-30T05:47:01.945Z,91.96
2023-04-30T05:48:01.990Z,92.07
2023-04-30T05:49:01.828Z,92.68
2023-04-30T05:50:01.814Z,92.48
2023-04-30T05:51:01.792Z,92.58
2023-04-30T05:52:01.806Z,92.38
2023-04-30T05:53:01.757Z,91.30
2023-04-30T05:54:01.767Z,91.09
2023-04-30T05:55:01.758Z,90.99
2023-04-30T05:56:01.747Z,90.99
2023-04-30T05:57:01.729Z,91.20
2023-04-30T05:58:01.699Z,91.71
2023-04-30T05:59:01.702Z,91.61
2023-04-30T06:00:01.709Z,91.92
2023-04-30T06:01:01.688Z,90.84
2023-04-30T06:02:01.737Z,90.22
2023-04-30T06:03:01.705Z,89.92
2023-04-30T06:04:01.668Z,88.68
2023-04-30T06:05:01.693Z,88.06
2023-04-30T06:06:01.676Z,88.26
2023-04-30T06:07:01.620Z,87.95
2023-04-30T06:08:01.611Z,87.54
2023-04-30T06:09:01.627Z,87.74
2023-04-30T06:10:01.564Z,87.29
2023-04-30T06:11:01.590Z,86.98
2023-04-30T06:12:01.562Z,87.50
2023-04-30T06:13:01.568Z,88.02
2023-04-30T06:14:01.547Z,87.71
2023-04-30T06:15:01.521Z,86.98
2023-04-30T06:16:01.576Z,86.98
2023-04-30T06:17:01.601Z,87.81
2023-04-30T06:18:01.544Z,87.71
2023-04-30T06:19:01.493Z,88.02
2023-04-30T06:20:01.490Z,87.08
2023-04-30T06:21:01.489Z,86.78
2023-04-30T06:22:01.489Z,87.05
2023-04-30T06:23:01.444Z,87.15
2023-04-30T06:24:01.447Z,85.81
2023-04-30T06:25:01.452Z,86.53
2023-04-30T06:26:01.405Z,86.84
2023-04-30T06:27:01.403Z,86.32
2023-04-30T06:28:01.372Z,85.71
2023-04-30T06:29:01.365Z,85.19
2023-04-30T06:30:01.382Z,84.99
2023-04-30T06:31:01.409Z,85.30
2023-04-30T06:32:01.339Z,84.78
2023-04-30T06:33:01.439Z,84.99
2023-04-30T06:34:01.510Z,85.46
2023-04-30T06:35:01.330Z,85.36
2023-04-30T06:36:01.341Z,84.53
2023-04-30T06:37:01.383Z,84.64
2023-04-30T06:38:01.297Z,84.33
2023-04-30T06:39:01.313Z,84.43
2023-04-30T06:40:01.276Z,84.80
2023-04-30T06:41:01.273Z,84.70
2023-04-30T06:42:01.250Z,84.70
2023-04-30T06:43:01.226Z,82.54
2023-04-30T06:44:01.212Z,83.05
2023-04-30T06:45:01.212Z,84.59
2023-04-30T06:46:01.226Z,83.87
2023-04-30T06:47:01.193Z,83.67
2023-04-30T06:48:01.264Z,83.56
2023-04-30T06:49:01.173Z,83.98
2023-04-30T06:50:01.144Z,83.36
2023-04-30T06:51:01.160Z,83.05
2023-04-30T06:52:01.170Z,82.95
2023-04-30T06:53:01.121Z,84.05
2023-04-30T06:54:01.115Z,84.14
2023-04-30T06:55:01.101Z,82.60
2023-04-30T06:56:01.096Z,81.98
2023-04-30T06:57:01.089Z,82.87
2023-04-30T06:58:01.076Z,82.25
2023-04-30T06:59:01.071Z,82.46
2023-04-30T07:00:01.043Z,82.25
2023-04-30T07:01:01.109Z,81.53
2023-04-30T07:02:01.199Z,80.95
2023-04-30T07:03:01.055Z,81.67
2023-04-30T07:04:01.024Z,81.74
2023-04-30T07:05:01.006Z,81.47
2023-04-30T07:06:01.020Z,82.15
2023-04-30T07:07:00.956Z,82.15
2023-04-30T07:08:00.938Z,82.46
2023-04-30T07:09:00.929Z,82.32
2023-04-30T07:10:00.922Z,81.91
2023-04-30T07:11:00.906Z,79.33
2023-04-30T07:12:00.929Z,79.44
2023-04-30T07:13:00.890Z,80.40
2023-04-30T07:14:00.879Z,79.75
2023-04-30T07:15:00.865Z,79.85
2023-04-30T07:16:00.949Z,80.16
2023-04-30T07:17:00.874Z,79.44
2023-04-30T07:18:00.878Z,80.88
2023-04-30T07:19:00.836Z,78.92
2023-04-30T07:20:00.861Z,79.03
2023-04-30T07:21:00.795Z,80.26
2023-04-30T07:22:00.878Z,79.54
2023-04-30T07:23:00.785Z,79.75
2023-04-30T07:24:00.765Z,79.40
2023-04-30T07:25:00.760Z,79.71
2023-04-30T07:26:00.763Z,80.94
2023-04-30T07:27:00.741Z,78.47
2023-04-30T07:28:00.725Z,78.47
2023-04-30T07:29:00.718Z,78.78
2023-04-30T07:30:00.704Z,79.30
2023-04-30T07:31:00.708Z,79.61
2023-04-30T07:32:00.751Z,79.61
2023-04-30T07:33:00.781Z,79.13
2023-04-30T07:34:00.695Z,78.72
2023-04-30T07:35:00.643Z,78.61
2023-04-30T07:36:00.652Z,78.61
2023-04-30T07:37:00.625Z,78.20
2023-04-30T07:38:00.630Z,78.61
2023-04-30T07:39:00.605Z,79.95
2023-04-30T07:40:00.592Z,80.16
2023-04-30T07:41:00.589Z,80.77
2023-04-30T07:42:00.604Z,80.94
2023-04-30T07:43:00.561Z,81.35
2023-04-30T07:44:00.574Z,80.22
2023-04-30T07:45:00.552Z,79.30
2023-04-30T07:46:00.605Z,78.89
2023-04-30T07:47:00.528Z,79.09
2023-04-30T07:48:00.606Z,78.89
2023-04-30T07:49:00.499Z,78.58
2023-04-30T07:50:00.510Z,80.12
2023-04-30T07:51:00.513Z,79.47
2023-04-30T07:52:00.474Z,79.16
2023-04-30T07:53:00.477Z,79.67
2023-04-30T07:54:00.463Z,79.57
2023-04-30T07:55:00.652Z,78.64
2023-04-30T07:56:00.452Z,79.88
2023-04-30T07:57:00.531Z,78.40
2023-04-30T07:58:00.404Z,78.09
2023-04-30T07:59:00.419Z,77.99
2023-04-30T08:00:00.391Z,77.99
2023-04-30T08:01:00.408Z,77.99
2023-04-30T08:02:00.404Z,78.81
2023-04-30T08:03:00.645Z,77.58
2023-04-30T08:04:00.495Z,76.76
2023-04-30T08:05:00.327Z,77.48
2023-04-30T08:06:00.372Z,78.57
2023-04-30T08:07:00.333Z,77.95
2023-04-30T08:08:00.292Z,77.71
2023-04-30T08:09:00.287Z,77.30
2023-04-30T08:10:00.296Z,78.43
2023-04-30T08:11:00.281Z,76.34
2023-04-30T08:12:00.277Z,75.62
2023-04-30T08:13:00.249Z,76.24
2023-04-30T08:14:00.255Z,76.45
2023-04-30T08:15:00.215Z,77.44
2023-04-30T08:16:00.227Z,76.51
2023-04-30T08:17:00.320Z,76.31
2023-04-30T08:18:00.239Z,76.31
2023-04-30T08:19:00.181Z,76.68
2023-04-30T08:20:00.191Z,74.98
2023-04-30T08:21:00.162Z,74.87
2023-04-30T08:22:00.184Z,76.68
2023-04-30T08:23:00.160Z,75.15
2023-04-30T08:24:00.173Z,74.77
2023-04-30T08:25:00.142Z,74.29
2023-04-30T08:26:00.240Z,75.56
2023-04-30T08:27:00.110Z,76.48
2023-04-30T08:28:00.124Z,76.68
2023-04-30T08:29:00.118Z,76.28
2023-04-30T08:30:00.072Z,76.07
2023-04-30T08:31:00.071Z,76.34
2023-04-30T08:32:00.083Z,75.32
2023-04-30T08:33:00.084Z,74.70
2023-04-30T08:34:00.076Z,75.11
2023-04-30T08:34:59.999Z,73.57
2023-04-30T08:36:00.188Z,73.57
2023-04-30T08:37:00.018Z,73.57
2023-04-30T08:38:00.148Z,74.29
2023-04-30T08:38:59.968Z,73.36
2023-04-30T08:39:59.991Z,73.16
2023-04-30T08:41:00.020Z,75.11
2023-04-30T08:41:59.956Z,73.57
2023-04-30T08:42:59.932Z,74.08
2023-04-30T08:43:59.910Z,73.47
2023-04-30T08:44:59.932Z,73.68
2023-04-30T08:46:00.048Z,73.78
2023-04-30T08:46:59.877Z,73.36
2023-04-30T08:47:59.974Z,73.98
2023-04-30T08:48:59.863Z,73.68
2023-04-30T08:49:59.847Z,73.68
2023-04-30T08:50:59.832Z,74.49
2023-04-30T08:51:59.822Z,76.58
2023-04-30T08:52:59.810Z,73.40
2023-04-30T08:53:59.810Z,72.27
2023-04-30T08:54:59.795Z,71.04
2023-04-30T08:55:59.819Z,72.38
2023-04-30T08:56:59.783Z,72.27
2023-04-30T08:57:59.766Z,71.56
2023-04-30T08:58:59.740Z,71.15
2023-04-30T08:59:59.756Z,70.22
2023-04-30T09:00:59.744Z,72.78
2023-04-30T09:01:59.772Z,72.07
2023-04-30T09:02:59.770Z,71.01
2023-04-30T09:03:59.826Z,71.01
2023-04-30T09:04:59.709Z,71.01
2023-04-30T09:05:59.710Z,69.17
2023-04-30T09:06:59.786Z,69.47
2023-04-30T09:08:03.597Z,70.29
2023-04-30T09:08:59.632Z,71.62
2023-04-30T09:09:59.653Z,71.22
2023-04-30T09:10:59.759Z,71.39
2023-04-30T09:11:59.615Z,69.95
2023-04-30T09:12:59.606Z,69.24
2023-04-30T09:13:59.584Z,70.06
2023-04-30T09:14:59.585Z,69.24
2023-04-30T09:15:59.595Z,68.32
2023-04-30T09:16:59.564Z,66.78
2023-04-30T09:17:59.626Z,67.08
2023-04-30T09:18:59.544Z,71.28
2023-04-30T09:19:59.530Z,67.80
2023-04-30T09:20:59.518Z,67.40
2023-04-30T09:21:59.516Z,69.27
2023-04-30T09:22:59.678Z,69.06
2023-04-30T09:23:59.492Z,69.44
2023-04-30T09:24:59.487Z,68.52
2023-04-30T09:25:59.475Z,68.83
2023-04-30T09:26:59.438Z,66.98
2023-04-30T09:27:59.453Z,66.98
2023-04-30T09:28:59.421Z,66.78
2023-04-30T09:29:59.487Z,66.78
2023-04-30T09:30:59.413Z,67.29
2023-04-30T09:31:59.445Z,67.08
2023-04-30T09:32:59.428Z,67.60
2023-04-30T09:33:59.380Z,67.40
2023-04-30T09:34:59.378Z,68.28
2023-04-30T09:35:59.365Z,67.43
2023-04-30T09:36:59.353Z,65.87
2023-04-30T09:37:59.333Z,66.38
2023-04-30T09:38:59.316Z,65.36
2023-04-30T09:39:59.324Z,64.13
2023-04-30T09:40:59.294Z,63.24
2023-04-30T09:41:59.291Z,63.65
2023-04-30T09:42:59.321Z,63.34
2023-04-30T09:43:59.288Z,64.47
2023-04-30T09:44:59.262Z,65.69
2023-04-30T09:45:59.246Z,64.74
2023-04-30T09:46:59.497Z,66.38
2023-04-30T09:48:09.035Z,68.93
2023-04-30T09:48:59.239Z,68.08
2023-04-30T09:49:59.203Z,63.79
2023-04-30T09:50:59.184Z,64.00
2023-04-30T09:51:59.187Z,66.55
2023-04-30T09:52:59.187Z,63.89
2023-04-30T09:53:59.176Z,63.66
2023-04-30T09:54:59.167Z,61.85
2023-04-30T09:55:59.171Z,62.26
2023-04-30T09:56:59.147Z,63.79
2023-04-30T09:57:59.123Z,63.69
2023-04-30T09:58:59.129Z,62.33
2023-04-30T09:59:59.102Z,63.66
2023-04-30T10:00:59.130Z,63.35
2023-04-30T10:01:59.091Z,63.66
2023-04-30T10:02:59.100Z,62.95
2023-04-30T10:03:59.102Z,62.74
2023-04-30T10:04:59.040Z,62.98
2023-04-30T10:05:59.052Z,64.17
2023-04-30T10:06:59.042Z,64.14
2023-04-30T10:07:59.029Z,63.32
2023-04-30T10:08:59.000Z,60.05
2023-04-30T10:09:59.020Z,62.51
2023-04-30T10:10:58.981Z,65.98
2023-04-30T10:11:58.986Z,65.77
2023-04-30T10:12:59.002Z,63.90
2023-04-30T10:13:58.944Z,62.99
2023-04-30T10:14:58.944Z,64.01
2023-04-30T10:15:58.988Z,62.51
2023-04-30T10:16:58.978Z,62.92
2023-04-30T10:17:59.019Z,63.73
2023-04-30T10:18:58.906Z,63.09
2023-04-30T10:19:58.904Z,61.87
2023-04-30T10:20:58.872Z,61.69
2023-04-30T10:21:58.884Z,62.71
2023-04-30T10:22:58.851Z,62.27
2023-04-30T10:23:58.844Z,62.48
2023-04-30T10:24:58.842Z,60.74
2023-04-30T10:25:58.824Z,62.78
2023-04-30T10:26:58.823Z,61.56
2023-04-30T10:27:58.808Z,61.53
2023-04-30T10:28:58.786Z,62.76
2023-04-30T10:29:58.785Z,60.10
2023-04-30T10:30:58.761Z,61.12
2023-04-30T10:31:58.844Z,61.30
2023-04-30T10:32:58.816Z,59.77
2023-04-30T10:33:58.781Z,59.39
2023-04-30T10:34:58.726Z,61.73
2023-04-30T10:35:58.842Z,61.63
2023-04-30T10:36:58.725Z,59.18
2023-04-30T10:37:58.708Z,60.10
2023-04-30T10:38:58.685Z,60.00
2023-04-30T10:39:58.658Z,60.10
2023-04-30T10:40:58.706Z,60.71
2023-04-30T10:41:58.722Z,60.41
2023-04-30T10:42:58.631Z,59.89
2023-04-30T10:44:01.200Z,59.69
2023-04-30T10:44:58.613Z,59.18
2023-04-30T10:45:58.806Z,59.21
2023-04-30T10:46:58.595Z,60.33
2023-04-30T10:47:58.627Z,60.44
2023-04-30T10:48:58.579Z,60.53
2023-04-30T10:49:58.561Z,62.27
2023-04-30T10:50:58.551Z,63.26
2023-04-30T10:51:58.572Z,65.51
2023-04-30T10:52:58.526Z,62.01
2023-04-30T10:53:58.532Z,60.76
2023-04-30T10:54:58.505Z,58.85
2023-04-30T10:55:58.500Z,59.43
2023-04-30T10:56:58.484Z,58.21
2023-04-30T10:57:58.482Z,59.05
2023-04-30T10:58:58.461Z,58.34
2023-04-30T10:59:58.468Z,58.23
2023-04-30T11:00:58.496Z,59.87
2023-04-30T11:01:58.680Z,59.36
2023-04-30T11:02:58.468Z,58.51
2023-04-30T11:03:58.429Z,62.77
2023-04-30T11:04:58.466Z,61.41
2023-04-30T11:05:58.426Z,58.76
2023-04-30T11:06:58.385Z,57.95
2023-04-30T11:07:58.388Z,58.05
2023-04-30T11:08:58.362Z,57.85
2023-04-30T11:09:58.360Z,58.28
2023-04-30T11:10:58.332Z,58.59
2023-04-30T11:11:58.364Z,59.00
2023-04-30T11:12:59.451Z,59.20
2023-04-30T11:13:58.301Z,59.91
2023-04-30T11:14:58.284Z,59.20
2023-04-30T11:15:58.296Z,58.39
2023-04-30T11:16:58.255Z,58.80
2023-04-30T11:17:58.365Z,58.39
2023-04-30T11:18:58.245Z,58.28
2023-04-30T11:19:58.231Z,58.69
2023-04-30T11:20:58.253Z,59.91
2023-04-30T11:21:58.217Z,59.10
2023-04-30T11:22:58.209Z,60.12
2023-04-30T11:23:58.205Z,58.51
2023-04-30T11:24:58.205Z,58.85
2023-04-30T11:25:58.166Z,59.26
2023-04-30T11:26:58.160Z,58.44
2023-04-30T11:27:58.148Z,59.46
2023-04-30T11:28:58.160Z,60.28
2023-04-30T11:29:58.471Z,61.16
2023-04-30T11:30:58.159Z,59.23
2023-04-30T11:31:58.208Z,60.35
2023-04-30T11:32:58.112Z,62.80
2023-04-30T11:33:58.090Z,65.69
2023-04-30T11:34:58.081Z,62.13
2023-04-30T11:35:58.118Z,59.75
2023-04-30T11:36:58.056Z,57.52
2023-04-30T11:37:58.037Z,56.60
2023-04-30T11:38:58.032Z,56.81
2023-04-30T11:39:58.031Z,59.05
2023-04-30T11:40:58.016Z,57.62
2023-04-30T11:41:58.146Z,57.14
2023-04-30T11:42:58.005Z,57.14
2023-04-30T11:43:57.982Z,57.01
2023-04-30T11:44:57.961Z,57.65
2023-04-30T11:45:57.991Z,58.67
2023-04-30T11:46:58.022Z,59.28
2023-04-30T11:47:57.972Z,57.24
2023-04-30T11:48:57.934Z,58.15
2023-04-30T11:49:57.914Z,61.08
2023-04-30T11:50:57.900Z,58.51
2023-04-30T11:51:57.876Z,58.48
2023-04-30T11:52:57.894Z,57.56
2023-04-30T11:53:57.865Z,56.68
2023-04-30T11:54:57.917Z,57.59
2023-04-30T11:55:57.848Z,57.82
2023-04-30T11:56:57.835Z,59.32
2023-04-30T11:57:57.818Z,58.94
2023-04-30T11:58:57.822Z,58.33
2023-04-30T11:59:57.842Z,58.74
2023-04-30T12:00:57.800Z,59.14
2023-04-30T12:01:57.819Z,60.03
2023-04-30T12:02:57.959Z,58.10
2023-04-30T12:03:57.948Z,57.49
2023-04-30T12:04:57.749Z,62.98
2023-04-30T12:05:57.742Z,61.53
2023-04-30T12:06:57.746Z,57.26
2023-04-30T12:07:57.805Z,56.93
2023-04-30T12:08:57.708Z,56.62
2023-04-30T12:09:57.886Z,56.93
2023-04-30T12:10:57.685Z,55.30
2023-04-30T12:11:57.676Z,53.27
2023-04-30T12:12:57.669Z,54.69
2023-04-30T12:13:57.675Z,55.00
2023-04-30T12:14:57.647Z,54.28
2023-04-30T12:15:57.621Z,54.08
2023-04-30T12:16:57.770Z,55.30
2023-04-30T12:17:57.724Z,56.21
2023-04-30T12:18:57.611Z,55.00
2023-04-30T12:19:57.579Z,54.90
2023-04-30T12:20:57.589Z,56.21
2023-04-30T12:21:57.581Z,55.73
2023-04-30T12:22:57.560Z,56.75
2023-04-30T12:23:57.536Z,57.84
2023-04-30T12:24:57.541Z,57.03
2023-04-30T12:25:57.518Z,56.62
2023-04-30T12:26:57.505Z,55.51
2023-04-30T12:27:57.512Z,56.49
2023-04-30T12:28:57.486Z,55.99
2023-04-30T12:29:57.607Z,56.39
2023-04-30T12:30:57.476Z,54.05
2023-04-30T12:31:57.519Z,55.00
2023-04-30T12:32:57.576Z,55.20
2023-04-30T12:33:57.463Z,55.60
2023-04-30T12:34:57.432Z,54.49
2023-04-30T12:35:57.413Z,57.03
2023-04-30T12:36:57.409Z,55.40
2023-04-30T12:37:57.407Z,55.20
2023-04-30T12:38:57.372Z,55.30
2023-04-30T12:39:57.699Z,54.90
2023-04-30T12:40:57.362Z,53.78
2023-04-30T12:41:57.342Z,53.88
2023-04-30T12:42:57.358Z,54.49
2023-04-30T12:43:57.315Z,55.51
2023-04-30T12:44:57.342Z,57.74
2023-04-30T12:45:57.364Z,54.77
2023-04-30T12:46:57.352Z,53.34
2023-04-30T12:47:57.331Z,55.20
2023-04-30T12:48:57.281Z,54.77
2023-04-30T12:49:57.378Z,54.97
2023-04-30T12:50:57.262Z,54.97
2023-04-30T12:51:57.252Z,54.87